createdAt,value
2023-01-02T00:00:52.697Z,18.75
2023-01-02T00:01:52.601Z,18.80
2023-01-02T00:02:52.737Z,18.80
2023-01-02T00:03:52.674Z,18.80
2023-01-02T00:04:52.613Z,18.80
2023-01-02T00:05:52.596Z,18.80
2023-01-02T00:06:52.629Z,18.78
2023-01-02T00:07:52.587Z,18.80
2023-01-02T00:08:52.607Z,18.81
2023-01-02T00:09:52.587Z,18.87
2023-01-02T00:10:53.119Z,18.84
2023-01-02T00:11:52.582Z,18.80
2023-01-02T00:12:52.578Z,18.80
2023-01-02T00:13:52.590Z,18.80
2023-01-02T00:14:52.581Z,18.84
2023-01-02T00:15:52.641Z,18.80
2023-01-02T00:16:52.583Z,18.85
2023-01-02T00:17:52.564Z,18.85
2023-01-02T00:18:52.699Z,18.84
2023-01-02T00:19:52.557Z,18.84
2023-01-02T00:20:52.566Z,18.84
2023-01-02T00:21:52.557Z,18.88
2023-01-02T00:22:52.573Z,18.85
2023-01-02T00:23:52.571Z,18.81
2023-01-02T00:24:52.553Z,18.80
2023-01-02T00:25:52.546Z,18.84
2023-01-02T00:26:52.541Z,18.82
2023-01-02T00:27:52.553Z,18.85
2023-01-02T00:28:52.545Z,18.87
2023-01-02T00:29:52.528Z,18.78
2023-01-02T00:30:52.546Z,18.84
2023-01-02T00:31:52.536Z,18.78
2023-01-02T00:32:52.546Z,18.88
2023-01-02T00:33:52.544Z,18.78
2023-01-02T00:34:52.558Z,18.85
2023-01-02T00:35:52.525Z,18.87
2023-01-02T00:36:52.516Z,18.78
2023-01-02T00:37:52.513Z,18.80
2023-01-02T00:38:52.516Z,18.81
2023-01-02T00:39:52.520Z,18.87
2023-01-02T00:40:52.504Z,18.87
2023-01-02T00:41:52.500Z,18.88
2023-01-02T00:42:52.507Z,18.81
2023-01-02T00:43:52.516Z,18.88
2023-01-02T00:44:52.498Z,18.88
2023-01-02T00:45:52.501Z,18.88
2023-01-02T00:46:52.540Z,18.81
2023-01-02T00:47:52.482Z,18.88
2023-01-02T00:48:52.495Z,18.95
2023-01-02T00:49:52.496Z,18.90
2023-01-02T00:50:52.530Z,18.91
2023-01-02T00:51:52.470Z,18.82
2023-01-02T00:52:52.487Z,18.90
2023-01-02T00:53:52.496Z,18.90
2023-01-02T00:54:52.472Z,18.92
2023-01-02T00:55:52.466Z,18.91
2023-01-02T00:56:52.468Z,18.90
2023-01-02T00:57:52.468Z,18.92
2023-01-02T00:58:52.455Z,18.88
2023-01-02T00:59:52.453Z,18.94
2023-01-02T01:00:52.545Z,18.92
2023-01-02T01:01:52.662Z,18.90
2023-01-02T01:02:52.545Z,18.91
2023-01-02T01:03:52.466Z,18.90
2023-01-02T01:04:52.446Z,18.90
2023-01-02T01:05:52.455Z,18.90
2023-01-02T01:06:52.487Z,18.91
2023-01-02T01:07:52.483Z,18.90
2023-01-02T01:08:52.453Z,18.91
2023-01-02T01:09:52.426Z,18.81
2023-01-02T01:10:52.456Z,18.80
2023-01-02T01:11:52.433Z,18.84
2023-01-02T01:12:52.448Z,18.98
2023-01-02T01:13:52.435Z,18.98
2023-01-02T01:14:52.446Z,18.88
2023-01-02T01:15:52.494Z,18.92
2023-01-02T01:16:52.428Z,18.91
2023-01-02T01:17:52.424Z,19.02
2023-01-02T01:18:52.406Z,18.94
2023-01-02T01:19:52.411Z,18.95
2023-01-02T01:20:52.416Z,18.91
2023-01-02T01:21:52.396Z,18.99
2023-01-02T01:22:52.429Z,18.90
2023-01-02T01:23:52.440Z,18.91
2023-01-02T01:24:52.410Z,18.91
2023-01-02T01:25:52.385Z,18.84
2023-01-02T01:26:52.406Z,18.92
2023-01-02T01:27:52.396Z,18.91
2023-01-02T01:28:52.405Z,18.98
2023-01-02T01:29:52.389Z,18.91
2023-01-02T01:30:52.394Z,18.94
2023-01-02T01:31:52.441Z,18.94
2023-01-02T01:32:52.388Z,18.85
2023-01-02T01:33:52.403Z,18.94
2023-01-02T01:34:52.394Z,18.99
2023-01-02T01:35:52.362Z,18.95
2023-01-02T01:36:52.373Z,18.95
2023-01-02T01:37:52.362Z,18.95
2023-01-02T01:38:52.396Z,18.92
2023-01-02T01:39:56.347Z,18.92
2023-01-02T01:40:52.345Z,18.91
2023-01-02T01:41:52.345Z,18.94
2023-01-02T01:42:56.110Z,18.90
2023-01-02T01:43:52.355Z,18.91
2023-01-02T01:44:52.347Z,18.94
2023-01-02T01:45:52.446Z,19.02
2023-01-02T01:46:52.331Z,18.95
2023-01-02T01:47:52.355Z,19.00
2023-01-02T01:48:52.344Z,18.95
2023-01-02T01:49:52.348Z,18.91
2023-01-02T01:50:52.322Z,18.94
2023-01-02T01:51:52.322Z,19.02
2023-01-02T01:52:52.314Z,18.90
2023-01-02T01:53:52.325Z,18.84
2023-01-02T01:54:52.328Z,18.94
2023-01-02T01:55:52.331Z,19.00
2023-01-02T01:56:52.306Z,18.95
2023-01-02T01:57:52.307Z,18.95
2023-01-02T01:58:52.311Z,18.94
2023-01-02T01:59:52.322Z,18.90
2023-01-02T02:00:52.322Z,19.00
2023-01-02T02:01:52.592Z,18.87
2023-01-02T02:02:52.388Z,19.04
2023-01-02T02:03:52.311Z,18.92
2023-01-02T02:04:52.292Z,18.91
2023-01-02T02:05:52.291Z,18.95
2023-01-02T02:06:52.282Z,18.94
2023-01-02T02:07:52.297Z,18.95
2023-01-02T02:08:52.287Z,18.98
2023-01-02T02:09:52.278Z,18.99
2023-01-02T02:10:52.306Z,18.85
2023-01-02T02:11:52.287Z,18.95
2023-01-02T02:12:52.305Z,18.95
2023-01-02T02:13:52.278Z,18.94
2023-01-02T02:14:52.273Z,18.92
2023-01-02T02:15:52.270Z,18.94
2023-01-02T02:16:52.360Z,18.91
2023-01-02T02:17:52.267Z,18.92
2023-01-02T02:18:52.385Z,18.92
2023-01-02T02:19:52.250Z,18.94
2023-01-02T02:20:52.248Z,18.98
2023-01-02T02:21:52.268Z,18.92
2023-01-02T02:22:52.257Z,18.94
2023-01-02T02:23:52.332Z,18.95
2023-01-02T02:24:52.242Z,18.98
2023-01-02T02:25:52.261Z,18.92
2023-01-02T02:26:52.372Z,18.99
2023-01-02T02:27:52.246Z,18.94
2023-01-02T02:28:52.328Z,19.00
2023-01-02T02:29:52.240Z,18.92
2023-01-02T02:30:52.221Z,19.00
2023-01-02T02:31:52.263Z,18.99
2023-01-02T02:32:52.235Z,18.94
2023-01-02T02:33:52.240Z,18.98
2023-01-02T02:34:52.237Z,18.98
2023-01-02T02:35:52.207Z,18.99
2023-01-02T02:36:52.219Z,18.95
2023-01-02T02:37:52.207Z,18.99
2023-01-02T02:38:52.247Z,18.94
2023-01-02T02:39:52.233Z,19.02
2023-01-02T02:40:52.208Z,18.99
2023-01-02T02:41:52.195Z,18.99
2023-01-02T02:42:52.240Z,18.94
2023-01-02T02:43:52.204Z,18.95
2023-01-02T02:44:52.210Z,18.95
2023-01-02T02:45:52.251Z,19.00
2023-01-02T02:46:52.178Z,19.00
2023-01-02T02:47:52.195Z,18.95
2023-01-02T02:48:52.186Z,18.99
2023-01-02T02:49:52.185Z,19.00
2023-01-02T02:50:52.194Z,18.98
2023-01-02T02:51:52.183Z,18.98
2023-01-02T02:52:52.180Z,18.98
2023-01-02T02:53:52.171Z,19.02
2023-01-02T02:54:52.175Z,18.95
2023-01-02T02:55:52.171Z,18.98
2023-01-02T02:56:52.165Z,18.91
2023-01-02T02:57:52.157Z,19.00
2023-01-02T02:58:52.198Z,18.99
2023-01-02T02:59:52.163Z,19.02
2023-01-02T03:00:52.212Z,18.95
2023-01-02T03:01:52.447Z,18.99
2023-01-02T03:02:52.326Z,18.99
2023-01-02T03:03:52.164Z,18.95
2023-01-02T03:04:52.144Z,18.95
2023-01-02T03:05:52.150Z,18.88
2023-01-02T03:06:52.169Z,18.94
2023-01-02T03:07:52.154Z,19.00
2023-01-02T03:08:52.140Z,19.00
2023-01-02T03:09:52.136Z,18.98
2023-01-02T03:10:52.136Z,18.99
2023-01-02T03:11:52.147Z,18.99
2023-01-02T03:12:52.130Z,18.99
2023-01-02T03:13:52.163Z,18.95
2023-01-02T03:14:52.239Z,18.98
2023-01-02T03:15:52.135Z,18.95
2023-01-02T03:16:52.187Z,18.99
2023-01-02T03:17:52.132Z,18.98
2023-01-02T03:18:52.103Z,18.98
2023-01-02T03:19:52.114Z,18.98
2023-01-02T03:20:52.109Z,19.02
2023-01-02T03:21:52.113Z,18.92
2023-01-02T03:22:52.096Z,18.95
2023-01-02T03:23:52.098Z,19.00
2023-01-02T03:24:52.099Z,19.02
2023-01-02T03:25:52.198Z,19.00
2023-01-02T03:26:52.092Z,19.00
2023-01-02T03:27:52.113Z,18.99
2023-01-02T03:28:52.081Z,18.85
2023-01-02T03:29:52.097Z,18.99
2023-01-02T03:30:52.187Z,18.98
2023-01-02T03:31:52.088Z,18.94
2023-01-02T03:32:52.092Z,18.94
2023-01-02T03:33:52.097Z,19.04
2023-01-02T03:34:52.067Z,19.00
2023-01-02T03:35:52.081Z,19.02
2023-01-02T03:36:52.082Z,18.98
2023-01-02T03:37:52.068Z,18.98
2023-01-02T03:38:52.066Z,18.99
2023-01-02T03:39:52.063Z,18.98
2023-01-02T03:40:52.064Z,18.98
2023-01-02T03:41:52.066Z,18.98
2023-01-02T03:42:52.058Z,19.02
2023-01-02T03:43:56.801Z,18.94
2023-01-02T03:44:52.073Z,19.06
2023-01-02T03:45:52.172Z,18.94
2023-01-02T03:46:52.055Z,18.98
2023-01-02T03:47:52.036Z,18.98
2023-01-02T03:48:52.061Z,18.98
2023-01-02T03:49:52.036Z,18.98
2023-01-02T03:50:52.039Z,19.00
2023-01-02T03:51:52.049Z,18.99
2023-01-02T03:52:52.037Z,18.98
2023-01-02T03:53:52.030Z,18.98
2023-01-02T03:54:52.010Z,19.02
2023-01-02T03:55:52.031Z,18.98
2023-01-02T03:56:52.010Z,18.94
2023-01-02T03:57:56.962Z,18.98
2023-01-02T03:58:52.017Z,19.02
2023-01-02T03:59:52.032Z,18.99
2023-01-02T04:00:52.010Z,18.99
2023-01-02T04:01:52.144Z,18.99
2023-01-02T04:02:52.143Z,19.04
2023-01-02T04:03:52.005Z,19.02
2023-01-02T04:04:52.002Z,18.95
2023-01-02T04:05:51.995Z,18.95
2023-01-02T04:06:51.979Z,19.06
2023-01-02T04:07:51.987Z,18.99
2023-01-02T04:08:51.985Z,18.99
2023-01-02T04:09:51.990Z,18.94
2023-01-02T04:10:57.938Z,18.94
2023-01-02T04:11:51.977Z,18.95
2023-01-02T04:12:51.966Z,19.00
2023-01-02T04:13:51.989Z,18.99
2023-01-02T04:14:51.964Z,18.95
2023-01-02T04:15:51.990Z,19.08
2023-01-02T04:16:51.956Z,18.94
2023-01-02T04:17:51.970Z,18.98
2023-01-02T04:18:52.091Z,19.00
2023-01-02T04:19:52.017Z,18.98
2023-01-02T04:20:51.946Z,19.00
2023-01-02T04:21:51.957Z,18.94
2023-01-02T04:22:51.949Z,18.98
2023-01-02T04:23:51.953Z,18.98
2023-01-02T04:24:51.955Z,18.95
2023-01-02T04:25:51.942Z,19.00
2023-01-02T04:26:51.951Z,18.98
2023-01-02T04:27:51.935Z,18.98
2023-01-02T04:28:51.944Z,19.02
2023-01-02T04:29:51.951Z,18.98
2023-01-02T04:30:51.976Z,18.98
2023-01-02T04:31:51.935Z,18.95
2023-01-02T04:32:51.927Z,18.92
2023-01-02T04:33:51.928Z,18.94
2023-01-02T04:34:51.961Z,18.95
2023-01-02T04:35:51.930Z,19.00
2023-01-02T04:36:51.936Z,19.00
2023-01-02T04:37:51.926Z,18.99
2023-01-02T04:38:51.933Z,18.98
2023-01-02T04:39:51.906Z,18.99
2023-01-02T04:40:51.969Z,18.98
2023-01-02T04:41:51.917Z,19.02
2023-01-02T04:42:51.914Z,18.99
2023-01-02T04:43:51.895Z,19.00
2023-01-02T04:44:51.904Z,19.00
2023-01-02T04:45:51.983Z,18.98
2023-01-02T04:46:51.901Z,19.04
2023-01-02T04:47:51.880Z,19.02
2023-01-02T04:48:51.892Z,19.06
2023-01-02T04:49:51.887Z,19.02
2023-01-02T04:50:51.892Z,19.00
2023-01-02T04:51:51.886Z,18.95
2023-01-02T04:52:51.870Z,18.99
2023-01-02T04:53:51.895Z,18.99
2023-01-02T04:54:51.895Z,18.99
2023-01-02T04:55:51.867Z,19.00
2023-01-02T04:56:51.859Z,19.02
2023-01-02T04:57:51.857Z,19.00
2023-01-02T04:58:51.864Z,18.94
2023-01-02T04:59:51.861Z,18.99
2023-01-02T05:00:51.849Z,19.00
2023-01-02T05:01:51.947Z,18.95
2023-01-02T05:02:51.887Z,18.99
2023-01-02T05:03:51.880Z,18.99
2023-01-02T05:04:51.851Z,18.94
2023-01-02T05:05:51.850Z,18.98
2023-01-02T05:06:51.849Z,19.00
2023-01-02T05:07:51.852Z,18.99
2023-01-02T05:08:51.840Z,19.06
2023-01-02T05:09:51.860Z,19.00
2023-01-02T05:10:51.825Z,18.99
2023-01-02T05:11:51.832Z,18.99
2023-01-02T05:12:51.831Z,19.07
2023-01-02T05:13:51.828Z,19.07
2023-01-02T05:14:51.831Z,18.95
2023-01-02T05:15:51.845Z,18.99
2023-01-02T05:16:51.820Z,18.95
2023-01-02T05:17:51.807Z,18.98
2023-01-02T05:18:51.808Z,18.92
2023-01-02T05:19:51.820Z,18.95
2023-01-02T05:20:51.809Z,19.04
2023-01-02T05:21:51.811Z,19.00
2023-01-02T05:22:51.855Z,18.98
2023-01-02T05:23:51.793Z,19.02
2023-01-02T05:24:51.799Z,19.06
2023-01-02T05:25:51.801Z,19.04
2023-01-02T05:26:51.779Z,19.00
2023-01-02T05:27:51.783Z,19.00
2023-01-02T05:28:51.792Z,19.07
2023-01-02T05:29:51.782Z,19.02
2023-01-02T05:30:51.823Z,18.99
2023-01-02T05:31:51.789Z,19.04
2023-01-02T05:32:51.778Z,19.00
2023-01-02T05:33:51.792Z,18.99
2023-01-02T05:34:51.763Z,18.92
2023-01-02T05:35:51.774Z,18.98
2023-01-02T05:36:51.758Z,19.07
2023-01-02T05:37:51.761Z,19.04
2023-01-02T05:38:51.798Z,18.95
2023-01-02T05:39:51.776Z,18.95
2023-01-02T05:40:51.750Z,19.02
2023-01-02T05:41:51.759Z,18.95
2023-01-02T05:42:51.747Z,18.98
2023-01-02T05:43:51.771Z,18.99
2023-01-02T05:44:51.732Z,19.00
2023-01-02T05:45:51.775Z,18.95
2023-01-02T05:46:51.752Z,18.98
2023-01-02T05:47:51.783Z,18.99
2023-01-02T05:48:51.732Z,18.99
2023-01-02T05:49:51.728Z,18.99
2023-01-02T05:50:51.719Z,18.95
2023-01-02T05:51:51.723Z,18.94
2023-01-02T05:52:51.731Z,19.00
2023-01-02T05:53:51.713Z,18.98
2023-01-02T05:54:51.741Z,18.99
2023-01-02T05:55:51.713Z,19.00
2023-01-02T05:56:51.724Z,19.02
2023-01-02T05:57:51.709Z,18.99
2023-01-02T05:58:51.710Z,18.98
2023-01-02T05:59:51.729Z,19.04
2023-01-02T06:00:51.703Z,18.99
2023-01-02T06:01:51.856Z,18.99
2023-01-02T06:02:51.871Z,18.99
2023-01-02T06:03:51.745Z,19.02
2023-01-02T06:04:51.690Z,18.95
2023-01-02T06:05:51.695Z,19.08
2023-01-02T06:06:51.716Z,19.00
2023-01-02T06:07:51.720Z,18.98
2023-01-02T06:08:51.682Z,18.98
2023-01-02T06:09:51.697Z,19.08
2023-01-02T06:10:51.704Z,19.02
2023-01-02T06:11:51.667Z,19.00
2023-01-02T06:12:51.682Z,19.04
2023-01-02T06:13:51.695Z,19.00
2023-01-02T06:14:51.666Z,18.99
2023-01-02T06:15:51.846Z,19.04
2023-01-02T06:16:51.658Z,19.04
2023-01-02T06:17:51.651Z,19.02
2023-01-02T06:18:51.654Z,18.95
2023-01-02T06:19:54.157Z,19.02
2023-01-02T06:20:51.675Z,18.94
2023-01-02T06:21:51.672Z,18.99
2023-01-02T06:22:51.649Z,19.00
2023-01-02T06:23:51.662Z,18.99
2023-01-02T06:24:51.661Z,18.99
2023-01-02T06:25:51.639Z,19.07
2023-01-02T06:26:51.675Z,19.06
2023-01-02T06:27:51.653Z,18.98
2023-01-02T06:28:51.651Z,19.00
2023-01-02T06:29:51.637Z,19.06
2023-01-02T06:30:51.648Z,19.06
2023-01-02T06:31:52.160Z,19.07
2023-01-02T06:32:51.618Z,18.92
2023-01-02T06:33:51.629Z,19.02
2023-01-02T06:34:51.626Z,19.00
2023-01-02T06:35:51.607Z,19.02
2023-01-02T06:36:51.611Z,18.91
2023-01-02T06:37:51.645Z,18.95
2023-01-02T06:38:51.618Z,19.10
2023-01-02T06:39:51.614Z,19.02
2023-01-02T06:40:51.599Z,18.98
2023-01-02T06:41:51.590Z,18.98
2023-01-02T06:42:54.736Z,19.00
2023-01-02T06:43:51.604Z,18.99
2023-01-02T06:44:51.644Z,18.99
2023-01-02T06:45:51.673Z,19.06
2023-01-02T06:46:51.681Z,19.07
2023-01-02T06:47:51.590Z,19.00
2023-01-02T06:48:51.637Z,18.99
2023-01-02T06:49:51.593Z,18.99
2023-01-02T06:50:51.592Z,18.98
2023-01-02T06:51:51.566Z,18.98
2023-01-02T06:52:51.602Z,18.94
2023-01-02T06:53:51.581Z,18.99
2023-01-02T06:54:51.565Z,19.07
2023-01-02T06:55:51.559Z,19.04
2023-01-02T06:56:51.577Z,18.99
2023-01-02T06:57:51.563Z,19.04
2023-01-02T06:58:51.569Z,18.98
2023-01-02T06:59:51.560Z,18.99
2023-01-02T07:00:51.673Z,19.00
2023-01-02T07:01:51.694Z,19.00
2023-01-02T07:02:51.647Z,18.98
2023-01-02T07:03:51.538Z,18.98
2023-01-02T07:04:51.551Z,18.95
2023-01-02T07:05:51.546Z,18.98
2023-01-02T07:06:51.533Z,19.06
2023-01-02T07:07:51.558Z,19.00
2023-01-02T07:08:51.524Z,19.04
2023-01-02T07:09:51.521Z,18.99
2023-01-02T07:10:53.169Z,18.99
2023-01-02T07:11:51.543Z,19.04
2023-01-02T07:12:51.534Z,18.99
2023-01-02T07:13:51.524Z,19.00
2023-01-02T07:14:51.544Z,18.98
2023-01-02T07:15:51.505Z,18.99
2023-01-02T07:16:51.556Z,19.06
2023-01-02T07:17:51.517Z,18.95
2023-01-02T07:18:51.517Z,19.04
2023-01-02T07:19:53.965Z,18.99
2023-01-02T07:20:51.496Z,19.02
2023-01-02T07:21:51.494Z,18.94
2023-01-02T07:22:51.494Z,19.00
2023-01-02T07:23:51.483Z,19.02
2023-01-02T07:24:51.513Z,19.00
2023-01-02T07:25:51.478Z,18.99
2023-01-02T07:26:51.488Z,18.95
2023-01-02T07:27:51.492Z,19.00
2023-01-02T07:28:51.481Z,19.07
2023-01-02T07:29:51.515Z,18.99
2023-01-02T07:30:51.494Z,19.00
2023-01-02T07:31:51.525Z,19.04
2023-01-02T07:32:51.468Z,19.11
2023-01-02T07:33:51.461Z,18.99
2023-01-02T07:34:51.526Z,18.99
2023-01-02T07:35:51.456Z,19.04
2023-01-02T07:36:51.456Z,19.11
2023-01-02T07:37:51.468Z,18.99
2023-01-02T07:38:51.466Z,18.99
2023-01-02T07:39:51.465Z,19.07
2023-01-02T07:40:51.459Z,19.04
2023-01-02T07:41:51.443Z,19.07
2023-01-02T07:42:51.460Z,19.06
2023-01-02T07:43:51.471Z,19.02
2023-01-02T07:44:51.451Z,19.04
2023-01-02T07:45:51.499Z,18.95
2023-01-02T07:46:51.563Z,19.11
2023-01-02T07:47:51.430Z,18.95
2023-01-02T07:48:51.445Z,19.02
2023-01-02T07:49:51.436Z,18.99
2023-01-02T07:50:51.422Z,19.04
2023-01-02T07:51:51.430Z,19.00
2023-01-02T07:52:51.435Z,19.04
2023-01-02T07:53:51.420Z,18.99
2023-01-02T07:54:51.417Z,18.99
2023-01-02T07:55:51.419Z,19.08
2023-01-02T07:56:51.429Z,19.04
2023-01-02T07:57:51.412Z,19.00
2023-01-02T07:58:51.410Z,19.08
2023-01-02T07:59:51.407Z,18.98
2023-01-02T08:00:51.463Z,19.10
2023-01-02T08:01:51.454Z,18.99
2023-01-02T08:02:51.530Z,19.08
2023-01-02T08:03:51.444Z,18.98
2023-01-02T08:04:51.397Z,18.99
2023-01-02T08:05:51.420Z,18.99
2023-01-02T08:06:51.381Z,18.95
2023-01-02T08:07:51.387Z,19.07
2023-01-02T08:08:51.372Z,18.98
2023-01-02T08:09:51.369Z,19.04
2023-01-02T08:10:51.374Z,18.95
2023-01-02T08:11:51.369Z,19.04
2023-01-02T08:12:51.379Z,18.99
2023-01-02T08:13:51.377Z,18.98
2023-01-02T08:14:51.378Z,19.02
2023-01-02T08:15:51.360Z,19.06
2023-01-02T08:16:51.439Z,19.00
2023-01-02T08:17:51.355Z,19.08
2023-01-02T08:18:51.523Z,19.00
2023-01-02T08:19:51.356Z,19.08
2023-01-02T08:20:51.344Z,19.08
2023-01-02T08:21:51.338Z,19.10
2023-01-02T08:22:51.373Z,19.06
2023-01-02T08:23:51.334Z,19.11
2023-01-02T08:24:51.354Z,19.13
2023-01-02T08:25:57.229Z,19.16
2023-01-02T08:26:51.336Z,19.22
2023-01-02T08:27:51.333Z,19.23
2023-01-02T08:28:51.372Z,19.19
2023-01-02T08:29:51.341Z,19.23
2023-01-02T08:30:51.366Z,19.28
2023-01-02T08:31:51.331Z,19.23
2023-01-02T08:32:51.337Z,19.28
2023-01-02T08:33:51.340Z,19.26
2023-01-02T08:34:51.357Z,19.23
2023-01-02T08:35:51.368Z,19.28
2023-01-02T08:36:51.310Z,19.32
2023-01-02T08:37:51.318Z,19.40
2023-01-02T08:38:51.321Z,19.36
2023-01-02T08:39:51.304Z,19.37
2023-01-02T08:40:51.368Z,19.46
2023-01-02T08:41:51.296Z,19.46
2023-01-02T08:42:51.311Z,19.44
2023-01-02T08:43:51.308Z,19.51
2023-01-02T08:44:51.309Z,19.50
2023-01-02T08:45:51.374Z,19.43
2023-01-02T08:46:51.335Z,19.56
2023-01-02T08:47:51.313Z,19.54
2023-01-02T08:48:51.303Z,19.54
2023-01-02T08:49:51.309Z,19.54
2023-01-02T08:50:51.321Z,19.59
2023-01-02T08:51:51.302Z,19.55
2023-01-02T08:52:51.295Z,19.68
2023-01-02T08:53:51.286Z,19.73
2023-01-02T08:54:51.288Z,19.68
2023-01-02T08:55:51.270Z,19.66
2023-01-02T08:56:51.278Z,19.73
2023-01-02T08:57:51.288Z,19.69
2023-01-02T08:58:52.857Z,19.81
2023-01-02T08:59:51.259Z,19.86
2023-01-02T09:00:51.287Z,19.80
2023-01-02T09:01:51.410Z,19.78
2023-01-02T09:02:51.525Z,19.94
2023-01-02T09:03:51.275Z,19.98
2023-01-02T09:04:51.273Z,19.94
2023-01-02T09:05:51.299Z,20.05
2023-01-02T09:06:51.316Z,19.99
2023-01-02T09:07:51.281Z,20.03
2023-01-02T09:08:51.264Z,20.08
2023-01-02T09:09:51.250Z,20.08
2023-01-02T09:10:51.253Z,20.11
2023-01-02T09:11:51.291Z,20.20
2023-01-02T09:12:51.258Z,20.24
2023-01-02T09:13:51.255Z,20.17
2023-01-02T09:14:51.245Z,20.21
2023-01-02T09:15:51.285Z,20.21
2023-01-02T09:16:51.279Z,20.18
2023-01-02T09:17:51.233Z,20.21
2023-01-02T09:18:51.250Z,20.36
2023-01-02T09:19:51.255Z,20.35
2023-01-02T09:20:51.265Z,20.31
2023-01-02T09:21:51.240Z,20.42
2023-01-02T09:22:51.263Z,20.39
2023-01-02T09:23:51.229Z,20.33
2023-01-02T09:24:51.239Z,20.38
2023-01-02T09:25:51.235Z,20.38
2023-01-02T09:26:51.271Z,20.36
2023-01-02T09:27:51.230Z,20.36
2023-01-02T09:28:51.246Z,20.41
2023-01-02T09:29:51.229Z,20.39
2023-01-02T09:30:51.233Z,20.43
2023-01-02T09:31:51.208Z,20.42
2023-01-02T09:32:51.229Z,20.43
2023-01-02T09:33:51.220Z,20.33
2023-01-02T09:34:51.246Z,20.43
2023-01-02T09:35:51.224Z,20.47
2023-01-02T09:36:51.273Z,20.41
2023-01-02T09:37:51.353Z,20.48
2023-01-02T09:38:51.249Z,20.41
2023-01-02T09:39:51.204Z,20.42
2023-01-02T09:40:51.266Z,20.41
2023-01-02T09:41:51.208Z,20.38
2023-01-02T09:42:51.215Z,20.39
2023-01-02T09:43:51.212Z,20.38
2023-01-02T09:44:51.203Z,20.33
2023-01-02T09:45:51.206Z,20.42
2023-01-02T09:46:51.247Z,20.42
2023-01-02T09:47:51.196Z,20.39
2023-01-02T09:48:51.192Z,20.38
2023-01-02T09:49:51.196Z,20.42
2023-01-02T09:50:51.200Z,20.35
2023-01-02T09:51:51.216Z,20.36
2023-01-02T09:52:51.184Z,20.39
2023-01-02T09:53:51.180Z,20.32
2023-01-02T09:54:51.216Z,20.32
2023-01-02T09:55:51.189Z,20.38
2023-01-02T09:56:51.182Z,20.38
2023-01-02T09:57:51.177Z,20.38
2023-01-02T09:58:51.196Z,20.38
2023-01-02T09:59:51.270Z,20.36
2023-01-02T10:00:51.200Z,20.41
2023-01-02T10:01:51.211Z,20.32
2023-01-02T10:02:51.212Z,20.35
2023-01-02T10:03:51.224Z,20.32
2023-01-02T10:04:51.184Z,20.26
2023-01-02T10:05:51.178Z,20.33
2023-01-02T10:06:51.174Z,20.36
2023-01-02T10:07:51.165Z,20.31
2023-01-02T10:08:51.167Z,20.28
2023-01-02T10:09:51.156Z,20.29
2023-01-02T10:10:51.180Z,20.18
2023-01-02T10:11:51.176Z,20.18
2023-01-02T10:12:51.173Z,20.29
2023-01-02T10:14:17.907Z,20.18
2023-01-02T10:14:51.167Z,20.14
2023-01-02T10:15:51.197Z,20.33
2023-01-02T10:16:51.199Z,20.21
2023-01-02T10:17:51.177Z,20.16
2023-01-02T10:18:51.143Z,20.17
2023-01-02T10:19:51.159Z,20.17
2023-01-02T10:20:51.142Z,20.26
2023-01-02T10:21:51.160Z,20.21
2023-01-02T10:22:51.139Z,20.06
2023-01-02T10:23:51.156Z,20.13
2023-01-02T10:24:51.141Z,20.13
2023-01-02T10:25:53.034Z,20.20
2023-01-02T10:26:51.151Z,20.10
2023-01-02T10:27:51.151Z,20.13
2023-01-02T10:28:51.149Z,20.21
2023-01-02T10:29:51.148Z,20.17
2023-01-02T10:30:51.159Z,20.14
2023-01-02T10:31:51.211Z,20.10
2023-01-02T10:32:51.141Z,20.18
2023-01-02T10:33:51.141Z,20.16
2023-01-02T10:34:51.120Z,20.08
2023-01-02T10:35:51.146Z,20.16
2023-01-02T10:36:51.115Z,20.10
2023-01-02T10:37:51.123Z,20.14
2023-01-02T10:38:51.116Z,20.06
2023-01-02T10:39:51.137Z,20.11
2023-01-02T10:40:51.130Z,20.10
2023-01-02T10:41:51.130Z,20.16
2023-01-02T10:42:57.775Z,20.13
2023-01-02T10:43:51.131Z,20.08
2023-01-02T10:44:51.111Z,20.08
2023-01-02T10:45:51.113Z,20.08
2023-01-02T10:46:51.174Z,20.16
2023-01-02T10:47:51.144Z,20.05
2023-01-02T10:48:52.388Z,20.08
2023-01-02T10:49:51.124Z,20.01
2023-01-02T10:50:51.104Z,20.10
2023-01-02T10:51:51.112Z,20.01
2023-01-02T10:52:51.103Z,19.98
2023-01-02T10:53:51.109Z,20.02
2023-01-02T10:54:56.690Z,20.03
2023-01-02T10:55:51.138Z,19.99
2023-01-02T10:56:51.104Z,19.99
2023-01-02T10:57:51.102Z,19.99
2023-01-02T10:58:51.127Z,20.10
2023-01-02T10:59:51.118Z,20.01
2023-01-02T11:00:51.111Z,19.98
2023-01-02T11:01:51.304Z,19.96
2023-01-02T11:02:51.235Z,19.98
2023-01-02T11:03:51.091Z,19.98
2023-01-02T11:04:51.094Z,20.03
2023-01-02T11:05:51.108Z,20.03
2023-01-02T11:06:51.079Z,19.96
2023-01-02T11:07:51.092Z,19.95
2023-01-02T11:08:51.068Z,19.98
2023-01-02T11:09:51.070Z,19.96
2023-01-02T11:10:51.086Z,19.99
2023-01-02T11:11:51.064Z,19.98
2023-01-02T11:12:51.075Z,19.98
2023-01-02T11:13:54.353Z,19.98
2023-01-02T11:14:51.125Z,19.94
2023-01-02T11:15:51.149Z,19.94
2023-01-02T11:16:51.070Z,19.95
2023-01-02T11:17:51.075Z,19.81
2023-01-02T11:18:51.069Z,19.86
2023-01-02T11:19:51.050Z,19.94
2023-01-02T11:20:51.077Z,19.94
2023-01-02T11:21:51.099Z,19.78
2023-01-02T11:22:51.048Z,19.87
2023-01-02T11:23:51.061Z,19.96
2023-01-02T11:24:57.665Z,19.94
2023-01-02T11:25:51.066Z,19.84
2023-01-02T11:26:51.056Z,19.88
2023-01-02T11:27:51.051Z,19.80
2023-01-02T11:28:51.060Z,19.78
2023-01-02T11:29:51.046Z,19.77
2023-01-02T11:30:51.042Z,19.74
2023-01-02T11:31:56.992Z,19.71
2023-01-02T11:32:51.027Z,19.65
2023-01-02T11:33:51.037Z,19.66
2023-01-02T11:34:51.077Z,19.68
2023-01-02T11:35:51.058Z,19.68
2023-01-02T11:36:51.038Z,19.65
2023-01-02T11:37:51.028Z,19.68
2023-01-02T11:38:51.027Z,19.68
2023-01-02T11:39:51.013Z,19.66
2023-01-02T11:40:51.011Z,19.74
2023-01-02T11:41:51.012Z,19.65
2023-01-02T11:42:51.019Z,19.63
2023-01-02T11:43:51.025Z,19.55
2023-01-02T11:44:51.051Z,19.58
2023-01-02T11:45:51.074Z,19.61
2023-01-02T11:46:51.059Z,19.61
2023-01-02T11:47:51.016Z,19.62
2023-01-02T11:48:50.995Z,19.68
2023-01-02T11:49:51.008Z,19.55
2023-01-02T11:50:51.002Z,19.59
2023-01-02T11:51:50.986Z,19.62
2023-01-02T11:52:50.984Z,19.63
2023-01-02T11:53:51.003Z,19.69
2023-01-02T11:54:50.979Z,19.63
2023-01-02T11:55:50.982Z,19.61
2023-01-02T11:56:50.977Z,19.56
2023-01-02T11:57:50.998Z,19.56
2023-01-02T11:58:50.987Z,19.56
2023-01-02T11:59:50.976Z,19.62
2023-01-02T12:00:51.008Z,19.55
2023-01-02T12:01:51.087Z,19.55
2023-01-02T12:02:51.241Z,19.61
2023-01-02T12:03:51.052Z,19.59
2023-01-02T12:04:50.973Z,19.63
2023-01-02T12:05:50.986Z,19.62
2023-01-02T12:06:50.972Z,19.58
2023-01-02T12:07:50.960Z,19.65
2023-01-02T12:08:51.966Z,19.59
2023-01-02T12:09:50.951Z,19.58
2023-01-02T12:10:50.948Z,19.59
2023-01-02T12:11:50.971Z,19.55
2023-01-02T12:12:50.952Z,19.55
2023-01-02T12:13:50.946Z,19.59
2023-01-02T12:14:54.707Z,19.54
2023-01-02T12:15:50.955Z,19.63
2023-01-02T12:16:51.017Z,19.65
2023-01-02T12:17:50.958Z,19.59
2023-01-02T12:18:50.967Z,19.61
2023-01-02T12:19:50.941Z,19.59
2023-01-02T12:20:50.952Z,19.59
2023-01-02T12:21:50.927Z,19.61
2023-01-02T12:22:50.946Z,19.59
2023-01-02T12:23:50.924Z,19.61
2023-01-02T12:24:50.916Z,19.59
2023-01-02T12:25:50.936Z,19.61
2023-01-02T12:26:50.928Z,19.55
2023-01-02T12:27:50.919Z,19.55
2023-01-02T12:28:50.940Z,19.59
2023-01-02T12:29:50.918Z,19.61
2023-01-02T12:30:50.918Z,19.58
2023-01-02T12:31:50.986Z,19.65
2023-01-02T12:32:50.914Z,19.56
2023-01-02T12:33:50.902Z,19.58
2023-01-02T12:34:51.025Z,19.55
2023-01-02T12:35:50.937Z,19.58
2023-01-02T12:36:50.916Z,19.59
2023-01-02T12:37:50.904Z,19.59
2023-01-02T12:38:50.889Z,19.55
2023-01-02T12:39:50.889Z,19.59
2023-01-02T12:40:50.898Z,19.56
2023-01-02T12:42:00.749Z,19.61
2023-01-02T12:42:50.886Z,19.56
2023-01-02T12:43:50.946Z,19.56
2023-01-02T12:44:50.878Z,19.59
2023-01-02T12:45:50.943Z,19.56
2023-01-02T12:46:50.877Z,19.54
2023-01-02T12:47:50.878Z,19.59
2023-01-02T12:48:50.885Z,19.58
2023-01-02T12:49:50.896Z,19.56
2023-01-02T12:50:50.903Z,19.56
2023-01-02T12:51:50.886Z,19.55
2023-01-02T12:52:50.889Z,19.56